createdAt,value
2019-05-25T00:02:59.889Z,100042.59
2019-05-25T00:08:01.985Z,100052.02
2019-05-25T00:13:04.046Z,100045.38
2019-05-25T00:18:06.177Z,100045.06
2019-05-25T00:23:09.135Z,100041.08
2019-05-25T00:28:11.194Z,100046.78
2019-05-25T00:33:13.231Z,100044.94
2019-05-25T00:38:15.293Z,100056.25
2019-05-25T00:43:17.437Z,100058.59
2019-05-25T00:48:19.471Z,100055.42
2019-05-25T00:53:21.566Z,100059.30
2019-05-25T00:58:23.611Z,100057.45
2019-05-25T01:03:25.653Z,100053.69
2019-05-25T01:08:27.724Z,100049.05
2019-05-25T01:13:29.781Z,100051.95
2019-05-25T01:18:31.828Z,100054.80
2019-05-25T01:23:33.929Z,100051.44
2019-05-25T01:28:37.879Z,100053.23
2019-05-25T01:33:39.929Z,100056.22
2019-05-25T01:38:41.980Z,100062.62
2019-05-25T01:43:44.038Z,100060.14
2019-05-25T01:48:46.114Z,100061.64
2019-05-25T01:53:48.219Z,100071.21
2019-05-25T01:58:50.247Z,100071.64
2019-05-25T02:03:52.344Z,100069.30
2019-05-25T02:08:54.455Z,100072.83
2019-05-25T02:13:56.636Z,100073.14
2019-05-25T02:18:58.744Z,100066.33
2019-05-25T02:24:01.627Z,100074.66
2019-05-25T02:29:03.857Z,100086.40
2019-05-25T02:34:05.934Z,100091.16
2019-05-25T02:39:08.004Z,100094.87
2019-05-25T02:44:10.088Z,100100.55
2019-05-25T02:49:12.154Z,100097.92
2019-05-25T02:54:14.325Z,100103.70
2019-05-25T02:59:16.394Z,100105.11
2019-05-25T03:04:19.385Z,100105.97
2019-05-25T03:09:22.476Z,100111.69
2019-05-25T03:14:24.530Z,100109.62
2019-05-25T03:19:26.680Z,100120.44
2019-05-25T03:24:28.721Z,100117.36
2019-05-25T03:29:30.827Z,100126.40
2019-05-25T03:34:32.882Z,100129.13
2019-05-25T03:39:35.081Z,100140.40
2019-05-25T03:44:37.158Z,100140.19
2019-05-25T03:49:39.222Z,100159.91
2019-05-25T03:54:41.375Z,100152.73
2019-05-25T03:59:43.473Z,100157.83
2019-05-25T04:04:45.614Z,100160.99
2019-05-25T04:09:47.685Z,100153.93
2019-05-25T04:14:49.757Z,100153.48
2019-05-25T04:19:51.795Z,100160.28
2019-05-25T04:24:53.831Z,100164.64
2019-05-25T04:29:55.910Z,100170.86
2019-05-25T04:34:57.937Z,100177.50
2019-05-25T04:39:59.966Z,100181.03
2019-05-25T04:45:04.495Z,100193.44
2019-05-25T04:50:07.755Z,100188.61
2019-05-25T04:55:10.444Z,100192.74
2019-05-25T05:00:12.851Z,100208.59
2019-05-25T05:05:15.302Z,100214.42
2019-05-25T05:10:19.496Z,100220.36
2019-05-25T05:15:23.294Z,100221.13
2019-05-25T05:20:25.335Z,100225.61
2019-05-25T05:25:27.453Z,100234.16
2019-05-25T05:30:33.655Z,100233.55
2019-05-25T05:35:39.085Z,100237.98
2019-05-25T05:40:43.326Z,100233.83
2019-05-25T05:45:47.813Z,100238.45
2019-05-25T05:50:51.945Z,100238.16
2019-05-25T05:55:54.127Z,100245.45
2019-05-25T06:00:56.216Z,100244.00
2019-05-25T06:05:58.448Z,100250.23
2019-05-25T06:11:00.483Z,100249.53
2019-05-25T06:16:02.721Z,100255.91
2019-05-25T06:21:04.958Z,100259.08
2019-05-25T06:26:07.037Z,100266.81
2019-05-25T06:31:09.056Z,100265.17
2019-05-25T06:36:11.166Z,100268.28
2019-05-25T06:41:13.230Z,100281.25
2019-05-25T06:46:15.328Z,100278.01
2019-05-25T06:51:17.498Z,100270.36
2019-05-25T06:56:19.536Z,100279.77
2019-05-25T07:01:21.614Z,100279.75
2019-05-25T07:06:23.806Z,100273.89
2019-05-25T07:11:25.858Z,100281.13
2019-05-25T07:16:27.895Z,100285.38
2019-05-25T07:21:29.962Z,100283.66
2019-05-25T07:26:32.197Z,100300.98
2019-05-25T07:31:34.860Z,100308.80
2019-05-25T07:36:37.032Z,100308.14
2019-05-25T07:41:39.245Z,100312.14
2019-05-25T07:46:43.310Z,100316.32
2019-05-25T07:51:45.380Z,100316.00
2019-05-25T07:56:47.827Z,100329.86
2019-05-25T08:01:50.042Z,100327.52
2019-05-25T08:06:52.057Z,100330.88
2019-05-25T08:11:54.222Z,100333.25
2019-05-25T08:16:56.261Z,100335.86
2019-05-25T08:21:58.388Z,100341.59
2019-05-25T08:27:00.542Z,100338.95
2019-05-25T08:32:02.638Z,100340.03
2019-05-25T08:37:04.756Z,100341.50
2019-05-25T08:42:06.911Z,100343.54
2019-05-25T08:47:08.982Z,100338.35
2019-05-25T08:52:11.097Z,100340.61
2019-05-25T08:57:17.833Z,100338.50
2019-05-25T09:02:17.266Z,100337.14
2019-05-25T09:07:19.331Z,100345.22
2019-05-25T09:12:21.375Z,100343.53
2019-05-25T09:17:23.498Z,100346.38
2019-05-25T09:22:25.546Z,100345.95
2019-05-25T09:27:27.622Z,100344.73
2019-05-25T09:32:29.792Z,100343.42
2019-05-25T09:37:37.251Z,100350.55
2019-05-25T09:42:40.075Z,100351.02
2019-05-25T09:47:42.451Z,100353.06
2019-05-25T09:52:44.554Z,100355.13
2019-05-25T09:57:49.445Z,100349.34
2019-05-25T10:02:51.863Z,100340.81
2019-05-25T10:07:54.144Z,100353.42
2019-05-25T10:12:56.465Z,100352.80
2019-05-25T10:17:58.582Z,100350.63
2019-05-25T10:23:00.842Z,100346.70
2019-05-25T10:28:03.063Z,100340.80
2019-05-25T10:33:05.117Z,100341.03
2019-05-25T10:38:07.214Z,100329.25
2019-05-25T10:43:09.373Z,100337.27
2019-05-25T10:48:11.422Z,100327.70
2019-05-25T10:53:13.524Z,100326.59
2019-05-25T10:58:15.626Z,100330.41
2019-05-25T11:03:19.515Z,100316.13
2019-05-25T11:08:21.641Z,100318.20
2019-05-25T11:13:23.728Z,100312.33
2019-05-25T11:18:27.424Z,100312.77
2019-05-25T11:23:29.624Z,100313.78
2019-05-25T11:28:32.177Z,100308.23
2019-05-25T11:33:36.396Z,100309.78
2019-05-25T11:38:38.336Z,100300.02
2019-05-25T11:43:40.403Z,100296.03
2019-05-25T11:48:42.963Z,100285.28
2019-05-25T11:53:45.200Z,100287.70
2019-05-25T11:58:47.989Z,100290.64
2019-05-25T12:03:50.376Z,100284.02
2019-05-25T12:08:52.439Z,100288.59
2019-05-25T12:13:56.906Z,100294.77
2019-05-25T12:18:59.199Z,100292.84
2019-05-25T12:24:01.283Z,100287.81
2019-05-25T12:29:03.522Z,100283.20
2019-05-25T12:34:05.566Z,100274.09
2019-05-25T12:39:07.926Z,100269.87
2019-05-25T12:44:09.955Z,100267.31
2019-05-25T12:49:12.092Z,100274.09
2019-05-25T12:54:14.178Z,100260.66
2019-05-25T12:59:18.600Z,100259.95
2019-05-25T13:04:20.634Z,100256.16
2019-05-25T13:09:22.694Z,100258.41
2019-05-25T13:14:25.137Z,100267.12
2019-05-25T13:19:27.234Z,100274.63
2019-05-25T13:24:29.396Z,100269.29
2019-05-25T13:29:31.591Z,100263.42
2019-05-25T13:34:33.662Z,100266.81
2019-05-25T13:39:35.763Z,100273.16
2019-05-25T13:44:37.924Z,100267.84
2019-05-25T13:49:40.000Z,100270.70
2019-05-25T13:54:42.236Z,100266.81
2019-05-25T13:59:44.428Z,100254.63
2019-05-25T14:04:46.812Z,100251.23
2019-05-25T14:09:48.936Z,100255.73
2019-05-25T14:14:50.970Z,100248.77
2019-05-25T14:19:53.142Z,100247.18
2019-05-25T14:24:55.275Z,100240.06
2019-05-25T14:29:57.261Z,100238.61
2019-05-25T14:34:59.285Z,100234.07
2019-05-25T14:40:01.417Z,100237.14
2019-05-25T14:45:04.537Z,100234.45
2019-05-25T14:50:07.475Z,100238.34
2019-05-25T14:55:10.329Z,100238.71
2019-05-25T15:00:13.583Z,100231.87
2019-05-25T15:05:15.652Z,100225.38
2019-05-25T15:10:17.898Z,100237.48
2019-05-25T15:15:20.061Z,100241.64
2019-05-25T15:20:22.149Z,100238.83
2019-05-25T15:25:24.182Z,100236.70
2019-05-25T15:30:26.333Z,100241.16
2019-05-25T15:35:28.612Z,100244.66
2019-05-25T15:40:30.707Z,100247.67
2019-05-25T15:45:32.859Z,100247.83
2019-05-25T15:50:35.065Z,100250.39
2019-05-25T15:55:37.137Z,100246.84
2019-05-25T16:00:46.909Z,100256.52
2019-05-25T16:05:49.185Z,100246.84
2019-05-25T16:10:51.145Z,100247.50
2019-05-25T16:15:53.215Z,100249.77
2019-05-25T16:20:55.412Z,100248.34
2019-05-25T16:25:57.466Z,100241.91
2019-05-25T16:30:59.547Z,100247.61
2019-05-25T16:36:03.554Z,100238.80
2019-05-25T16:41:05.607Z,100241.59
2019-05-25T16:46:07.685Z,100242.86
2019-05-25T16:51:09.773Z,100249.45
2019-05-25T16:56:13.534Z,100256.93
2019-05-25T17:01:18.017Z,100252.36
2019-05-25T17:06:20.845Z,100249.61
2019-05-25T17:11:22.915Z,100255.23
2019-05-25T17:16:24.874Z,100250.36
2019-05-25T17:21:26.961Z,100251.75
2019-05-25T17:26:29.109Z,100264.40
2019-05-25T17:31:31.173Z,100269.95
2019-05-25T17:36:33.221Z,100273.17
2019-05-25T17:41:35.407Z,100273.80
2019-05-25T17:46:39.460Z,100272.36
2019-05-25T17:51:44.321Z,100278.50
2019-05-25T17:56:48.827Z,100280.67
2019-05-25T18:01:50.989Z,100285.52
2019-05-25T18:06:54.527Z,100289.06
2019-05-25T18:11:56.583Z,100294.61
2019-05-25T18:16:58.746Z,100295.69
2019-05-25T18:22:09.902Z,100301.11
2019-05-25T18:27:14.757Z,100296.84
2019-05-25T18:32:18.026Z,100304.73
2019-05-25T18:37:20.081Z,100299.23
2019-05-25T18:42:22.222Z,100304.91
2019-05-25T18:47:24.357Z,100306.80
2019-05-25T18:52:28.852Z,100304.82
2019-05-25T18:57:35.796Z,100308.25
2019-05-25T19:02:38.080Z,100315.48
2019-05-25T19:07:40.309Z,100316.09
2019-05-25T19:12:44.772Z,100328.77
2019-05-25T19:17:46.894Z,100332.09
2019-05-25T19:22:49.115Z,100337.58
2019-05-25T19:27:51.430Z,100354.70
2019-05-25T19:32:53.523Z,100355.27
2019-05-25T19:37:55.633Z,100364.23
2019-05-25T19:42:57.776Z,100365.55
2019-05-25T19:48:00.983Z,100374.34
2019-05-25T19:53:03.359Z,100384.13
2019-05-25T19:58:05.481Z,100388.61
2019-05-25T20:03:07.617Z,100401.67
2019-05-25T20:08:09.734Z,100404.47
2019-05-25T20:13:11.847Z,100403.15
2019-05-25T20:18:13.983Z,100411.94
2019-05-25T20:23:16.074Z,100419.38
2019-05-25T20:28:19.489Z,100414.91
2019-05-25T20:33:27.726Z,100418.07
2019-05-25T20:38:25.867Z,100425.16
2019-05-25T20:43:27.914Z,100418.91
2019-05-25T20:48:29.963Z,100419.41
2019-05-25T20:53:32.130Z,100421.22
2019-05-25T20:58:35.809Z,100424.16
2019-05-25T21:03:37.906Z,100428.13
2019-05-25T21:08:40.005Z,100432.10
2019-05-25T21:13:42.232Z,100431.12
2019-05-25T21:18:44.374Z,100427.30
2019-05-25T21:23:46.524Z,100436.55
2019-05-25T21:28:49.741Z,100439.34
2019-05-25T21:33:51.763Z,100445.45
2019-05-25T21:38:53.857Z,100454.54
2019-05-25T21:43:55.875Z,100451.92
2019-05-25T21:48:58.138Z,100455.06
2019-05-25T21:54:00.155Z,100457.36
2019-05-25T21:59:02.233Z,100456.37
2019-05-25T22:04:04.280Z,100453.89
2019-05-25T22:09:07.478Z,100455.73
2019-05-25T22:14:09.540Z,100449.63
2019-05-25T22:19:11.637Z,100438.69
2019-05-25T22:24:13.713Z,100440.02
2019-05-25T22:29:15.815Z,100430.29
2019-05-25T22:34:17.880Z,100424.17
2019-05-25T22:39:20.026Z,100417.23
2019-05-25T22:44:21.970Z,100425.98
2019-05-25T22:49:24.040Z,100431.45
2019-05-25T22:54:26.141Z,100424.83
2019-05-25T22:59:28.182Z,100427.48
2019-05-25T23:04:30.370Z,100434.90
2019-05-25T23:09:32.433Z,100429.11
2019-05-25T23:14:34.526Z,100420.69
2019-05-25T23:19:36.609Z,100413.09
2019-05-25T23:24:38.659Z,100393.12
2019-05-25T23:29:40.720Z,100390.63
2019-05-25T23:34:42.752Z,100393.59
2019-05-25T23:39:44.789Z,100401.19
2019-05-25T23:44:48.056Z,100394.08
2019-05-25T23:49:50.097Z,100392.25
2019-05-25T23:54:52.224Z,100389.39
2019-05-25T23:59:54.275Z,100379.16
